Darstellungsparameter: Aktuell verwendete Einstellungen:
Skalierung der Graphiken ... ?
xyx+y,   Skalierungsfaktor:      Skalierung: Modus: x, Faktor: 1
Darstellungszeitraum ... ?
Vom - - bis: - -   Zeitraum: 10.05.2021 - 10.05.2021
Min/Max/Avg-Anzeige ... ?
Zeige MMA aktuell
Zeige MMA Monat
Zeige MMA alles
Zeige --A aktuell
Zeige --A Monat
Zeige --A alles
Keine MMA-Anzeige
MMA:
Keine MMA-Graphiken
MMA-Basis: 10.05.2021 - 10.05.2021
Quicknavigation für Darstellung... ?
Tage:      1T, 2T, 3T, 5T -1T -2T -3T -5T +1T +2T +3T +5T
Wochen: 1W, 2W, 3W -1W -2W -3W +1W +2W +3W
Monate: 1M, 3M, 6M -1M -3M -6M +1M +3M +6M
Jahre:    1J, 3J, 5J, 10J -1J -3J -5J -10J +1J +3J +5J +10J
Nutze für die Darstellung ... ?
Originaldaten oder Mittelwerte auf ...
Stundenbasis Tagesbasis Wochenbasis
Monatsbasis Jahresbasis      Datenbasis: Original-Daten
Darstellen als:
Statistik (Auto) Statistik J:M      Darstellung:

Der gewünschte Datumsbereich war nicht gültig/verfügbar und wurde korrigiert....
Das angegebene Enddatum (04.09.2024 23:59:59) liegt in der Zukunft.
Das angegebene Startdatum (05.08.2024 00:00:00) liegt in der Zukunft.


Zur Graphik,    zurück zur Übersicht aller Sensoren.
 
Tabellarische Datenbersicht: ?
 
Sensor: Nr:Datum:Temp:Feuchte:Taupunkt:
Aussen-T/F 1 10-05-2021 02:00:00 17.4 C 69 % 11.66 C
2 10-05-2021 02:05:00 17.4 C 71 % 12.09 C
3 10-05-2021 02:10:00 17.4 C 71 % 12.09 C
4 10-05-2021 02:15:00 17.4 C 71 % 12.09 C
5 10-05-2021 02:20:00 17.4 C 73 % 12.51 C
6 10-05-2021 02:25:00 17.4 C 74 % 12.72 C
7 10-05-2021 02:30:00 17.4 C 75 % 12.93 C
8 10-05-2021 02:35:00 17.3 C 74 % 12.62 C
9 10-05-2021 02:40:00 17.2 C 73 % 12.32 C
10 10-05-2021 02:45:00 17.1 C 75 % 12.64 C
11 10-05-2021 02:50:00 17.1 C 76 % 12.84 C
12 10-05-2021 02:55:00 17 C 75 % 12.54 C
13 10-05-2021 03:00:00 16.9 C 76 % 12.65 C
14 10-05-2021 03:05:00 16.8 C 74 % 12.14 C
15 10-05-2021 03:10:00 16.7 C 75 % 12.25 C
16 10-05-2021 03:15:00 16.8 C 77 % 12.75 C
17 10-05-2021 03:20:00 16.7 C 77 % 12.65 C
18 10-05-2021 03:25:00 16.6 C 76 % 12.36 C
19 10-05-2021 03:30:00 16.5 C 76 % 12.26 C
20 10-05-2021 03:35:00 16.4 C 76 % 12.16 C
21 10-05-2021 03:40:00 16.4 C 76 % 12.16 C
22 10-05-2021 03:45:00 16.4 C 77 % 12.36 C
23 10-05-2021 03:50:00 16.3 C 76 % 12.07 C
24 10-05-2021 03:55:00 16.4 C 75 % 11.96 C
25 10-05-2021 04:00:00 16.6 C 75 % 12.15 C
Sensor: Nr:Datum:Temp:Feuchte:Taupunkt:
Aussen-T/F 26 10-05-2021 04:05:00 16.6 C 74 % 11.95 C
27 10-05-2021 04:10:00 16.7 C 74 % 12.05 C
28 10-05-2021 04:15:00 16.8 C 74 % 12.14 C
29 10-05-2021 04:20:00 16.8 C 74 % 12.14 C
30 10-05-2021 04:25:00 16.8 C 74 % 12.14 C
31 10-05-2021 04:30:00 16.7 C 75 % 12.25 C
32 10-05-2021 04:35:00 16.6 C 75 % 12.15 C
33 10-05-2021 04:40:00 16.5 C 75 % 12.06 C
34 10-05-2021 04:45:00 16.4 C 76 % 12.16 C
35 10-05-2021 04:50:00 16.3 C 77 % 12.26 C
36 10-05-2021 04:55:00 16.2 C 78 % 12.36 C
37 10-05-2021 05:00:00 16.1 C 78 % 12.27 C
38 10-05-2021 05:05:00 15.9 C 78 % 12.07 C
39 10-05-2021 05:10:00 15.7 C 78 % 11.88 C
40 10-05-2021 05:15:00 15.5 C 78 % 11.68 C
41 10-05-2021 05:20:00 15.3 C 78 % 11.49 C
42 10-05-2021 05:25:00 15.3 C 80 % 11.87 C
43 10-05-2021 05:30:00 15.2 C 80 % 11.78 C
44 10-05-2021 05:35:00 15.2 C 80 % 11.78 C
45 10-05-2021 05:40:00 15.2 C 80 % 11.78 C
46 10-05-2021 05:45:00 15.3 C 80 % 11.87 C
47 10-05-2021 05:50:00 15.3 C 80 % 11.87 C
48 10-05-2021 05:55:00 15.3 C 80 % 11.87 C
49 10-05-2021 06:00:00 15.4 C 81 % 12.16 C
50 10-05-2021 06:05:00 15.4 C 82 % 12.35 C
Sensor: Nr:Datum:Temp:Feuchte:Taupunkt:
Aussen-T/F 51 10-05-2021 06:10:00 15.4 C 82 % 12.35 C
52 10-05-2021 06:15:00 15.4 C 82 % 12.35 C
53 10-05-2021 06:20:00 15.3 C 82 % 12.25 C
54 10-05-2021 06:25:00 15.4 C 82 % 12.35 C
55 10-05-2021 06:30:00 15.4 C 81 % 12.16 C
56 10-05-2021 06:35:00 15.6 C 79 % 11.97 C
57 10-05-2021 06:40:00 16 C 76 % 11.77 C
58 10-05-2021 06:45:00 16.7 C 74 % 12.05 C
59 10-05-2021 06:50:00 17.3 C 71 % 12 C
60 10-05-2021 06:55:00 17.8 C 69 % 12.04 C
61 10-05-2021 07:00:00 18.2 C 68 % 12.2 C
62 10-05-2021 07:05:00 18.3 C 69 % 12.52 C
63 10-05-2021 07:10:00 18.4 C 69 % 12.61 C
64 10-05-2021 07:15:00 18.5 C 67 % 12.26 C
65 10-05-2021 07:20:00 18.7 C 67 % 12.45 C
66 10-05-2021 07:25:00 18.8 C 67 % 12.55 C
67 10-05-2021 07:30:00 18.9 C 66 % 12.41 C
68 10-05-2021 07:35:00 19.1 C 66 % 12.6 C
69 10-05-2021 07:40:00 19.2 C 65 % 12.47 C
70 10-05-2021 07:45:00 19.2 C 66 % 12.7 C
71 10-05-2021 07:50:00 19.2 C 66 % 12.7 C
72 10-05-2021 07:55:00 19.1 C 67 % 12.83 C
73 10-05-2021 08:00:00 19.1 C 67 % 12.83 C
74 10-05-2021 08:05:00 19 C 67 % 12.74 C
75 10-05-2021 08:10:00 19 C 68 % 12.96 C
Sensor: Nr:Datum:Temp:Feuchte:Taupunkt:
Aussen-T/F 76 10-05-2021 08:15:00 19 C 67 % 12.74 C
77 10-05-2021 08:20:00 19 C 68 % 12.96 C
78 10-05-2021 08:25:00 19.1 C 68 % 13.06 C
79 10-05-2021 08:30:00 19.1 C 69 % 13.28 C
80 10-05-2021 08:35:00 19.1 C 70 % 13.5 C
81 10-05-2021 08:40:00 19.1 C 68 % 13.06 C
82 10-05-2021 08:45:00 18.9 C 68 % 12.87 C
83 10-05-2021 08:50:00 18.8 C 69 % 13 C
84 10-05-2021 08:55:00 18.8 C 68 % 12.77 C
85 10-05-2021 09:00:00 18.8 C 70 % 13.22 C
86 10-05-2021 09:05:00 18.9 C 68 % 12.87 C
87 10-05-2021 09:10:00 19.1 C 67 % 12.83 C
88 10-05-2021 09:15:00 19.3 C 66 % 12.79 C
89 10-05-2021 09:20:00 19.4 C 66 % 12.89 C
90 10-05-2021 09:25:00 19.6 C 65 % 12.84 C
91 10-05-2021 09:30:00 19.9 C 63 % 12.65 C
92 10-05-2021 09:35:00 20.2 C 62 % 12.69 C
93 10-05-2021 09:40:00 20.3 C 61 % 12.54 C
94 10-05-2021 09:45:00 20.3 C 60 % 12.29 C
95 10-05-2021 09:50:00 20.4 C 60 % 12.38 C
96 10-05-2021 09:55:00 20.7 C 61 % 12.91 C
97 10-05-2021 10:00:00 20.7 C 60 % 12.66 C
98 10-05-2021 10:05:00 20.8 C 60 % 12.76 C
99 10-05-2021 10:10:00 20.8 C 59 % 12.5 C
100 10-05-2021 10:15:00 20.8 C 61 % 13.01 C
Sensor: Nr:Datum:Temp:Feuchte:Taupunkt:
Aussen-T/F 101 10-05-2021 10:20:00 20.9 C 61 % 13.1 C
102 10-05-2021 10:25:00 21.1 C 58 % 12.52 C
103 10-05-2021 10:30:00 21.2 C 55 % 11.81 C
104 10-05-2021 10:35:00 20.9 C 56 % 11.8 C
105 10-05-2021 10:40:00 20.7 C 57 % 11.88 C
106 10-05-2021 10:45:00 20.7 C 58 % 12.15 C
107 10-05-2021 10:50:00 20.7 C 58 % 12.15 C
108 10-05-2021 10:55:00 20.7 C 57 % 11.88 C
109 10-05-2021 11:00:00 20.8 C 58 % 12.24 C
110 10-05-2021 11:05:00 20.9 C 57 % 12.07 C
111 10-05-2021 11:10:00 20.8 C 58 % 12.24 C
112 10-05-2021 11:15:00 20.8 C 59 % 12.5 C
113 10-05-2021 11:20:00 20.7 C 59 % 12.41 C
114 10-05-2021 11:25:00 20.7 C 60 % 12.66 C
115 10-05-2021 11:30:00 20.6 C 60 % 12.57 C
116 10-05-2021 11:35:00 20.4 C 61 % 12.63 C
117 10-05-2021 11:40:00 20.2 C 62 % 12.69 C
118 10-05-2021 11:45:00 20.1 C 63 % 12.84 C
119 10-05-2021 11:50:00 20.1 C 63 % 12.84 C
120 10-05-2021 11:55:00 20.1 C 65 % 13.32 C
121 10-05-2021 12:00:00 20.2 C 66 % 13.65 C
122 10-05-2021 12:05:00 20.2 C 65 % 13.41 C
123 10-05-2021 12:10:00 20.3 C 64 % 13.27 C
124 10-05-2021 12:15:00 20.1 C 67 % 13.78 C
125 10-05-2021 12:20:00 20 C 66 % 13.46 C
Sensor: Nr:Datum:Temp:Feuchte:Taupunkt:
Aussen-T/F 126 10-05-2021 12:25:00 19.7 C 65 % 12.94 C
127 10-05-2021 12:30:00 19.4 C 66 % 12.89 C
128 10-05-2021 12:35:00 19.2 C 67 % 12.93 C
129 10-05-2021 12:40:00 19.2 C 67 % 12.93 C
130 10-05-2021 12:45:00 19.1 C 67 % 12.83 C
131 10-05-2021 12:50:00 19.1 C 68 % 13.06 C
132 10-05-2021 12:55:00 18.9 C 67 % 12.64 C
133 10-05-2021 13:00:00 18.7 C 67 % 12.45 C
134 10-05-2021 13:05:00 18.5 C 68 % 12.49 C
135 10-05-2021 13:10:00 18.4 C 69 % 12.61 C
136 10-05-2021 13:15:00 18.3 C 68 % 12.3 C
137 10-05-2021 13:20:00 18.4 C 68 % 12.39 C
138 10-05-2021 13:25:00 18.4 C 66 % 11.94 C
139 10-05-2021 13:30:00 18.6 C 66 % 12.13 C
140 10-05-2021 13:35:00 18.8 C 67 % 12.55 C
141 10-05-2021 13:40:00 18.9 C 67 % 12.64 C
142 10-05-2021 13:45:00 18.9 C 66 % 12.41 C
143 10-05-2021 13:50:00 18.9 C 65 % 12.18 C
144 10-05-2021 13:55:00 19 C 65 % 12.28 C
145 10-05-2021 14:00:00 19.1 C 65 % 12.37 C
146 10-05-2021 14:05:00 19.2 C 64 % 12.23 C
147 10-05-2021 14:10:00 19.3 C 65 % 12.56 C
148 10-05-2021 14:15:00 19.4 C 64 % 12.42 C
149 10-05-2021 14:20:00 19.5 C 63 % 12.27 C
150 10-05-2021 14:25:00 19.6 C 63 % 12.37 C
Sensor: Nr:Datum:Temp:Feuchte:Taupunkt:
Aussen-T/F 151 10-05-2021 14:30:00 19.5 C 63 % 12.27 C
152 10-05-2021 14:35:00 19.5 C 64 % 12.51 C
153 10-05-2021 14:40:00 19.6 C 63 % 12.37 C
154 10-05-2021 14:45:00 19.5 C 63 % 12.27 C
155 10-05-2021 14:50:00 19.5 C 63 % 12.27 C
156 10-05-2021 14:55:00 19.5 C 63 % 12.27 C
157 10-05-2021 15:00:00 19.4 C 63 % 12.18 C
158 10-05-2021 15:05:00 19.4 C 64 % 12.42 C
159 10-05-2021 15:10:00 19.3 C 62 % 11.84 C
160 10-05-2021 15:15:00 19.3 C 63 % 12.09 C
161 10-05-2021 15:20:00 19.3 C 63 % 12.09 C
162 10-05-2021 15:25:00 19.4 C 62 % 11.94 C
163 10-05-2021 15:30:00 19.4 C 63 % 12.18 C
164 10-05-2021 15:35:00 19.4 C 63 % 12.18 C
165 10-05-2021 15:40:00 19.4 C 62 % 11.94 C
166 10-05-2021 15:45:00 19.4 C 62 % 11.94 C
167 10-05-2021 15:50:00 19.4 C 62 % 11.94 C
168 10-05-2021 15:55:00 19.4 C 62 % 11.94 C
169 10-05-2021 16:00:00 19.4 C 62 % 11.94 C
170 10-05-2021 16:05:00 19.5 C 62 % 12.03 C
171 10-05-2021 16:10:00 19.6 C 63 % 12.37 C
172 10-05-2021 16:15:00 19.6 C 61 % 11.88 C
173 10-05-2021 16:20:00 19.5 C 61 % 11.78 C
174 10-05-2021 16:25:00 19.3 C 62 % 11.84 C
175 10-05-2021 16:30:00 19.3 C 63 % 12.09 C
Sensor: Nr:Datum:Temp:Feuchte:Taupunkt:
Aussen-T/F 176 10-05-2021 16:35:00 19.2 C 63 % 11.99 C
177 10-05-2021 16:40:00 19.3 C 64 % 12.32 C
178 10-05-2021 16:45:00 19.2 C 64 % 12.23 C
179 10-05-2021 16:50:00 19.3 C 64 % 12.32 C
180 10-05-2021 16:55:00 19.2 C 64 % 12.23 C
181 10-05-2021 17:00:00 19.2 C 63 % 11.99 C
182 10-05-2021 17:05:00 19.1 C 63 % 11.9 C
183 10-05-2021 17:10:00 19.1 C 64 % 12.14 C
184 10-05-2021 17:15:00 19.1 C 64 % 12.14 C
185 10-05-2021 17:20:00 19 C 65 % 12.28 C
186 10-05-2021 17:25:00 19 C 65 % 12.28 C
187 10-05-2021 17:30:00 18.9 C 66 % 12.41 C
188 10-05-2021 17:35:00 18.9 C 64 % 11.95 C
189 10-05-2021 17:40:00 18.8 C 65 % 12.09 C
190 10-05-2021 17:45:00 18.8 C 65 % 12.09 C
191 10-05-2021 17:50:00 18.7 C 67 % 12.45 C
192 10-05-2021 17:55:00 18.7 C 67 % 12.45 C
193 10-05-2021 18:00:00 18.7 C 67 % 12.45 C
194 10-05-2021 18:05:00 18.7 C 69 % 12.9 C
195 10-05-2021 18:10:00 18.7 C 69 % 12.9 C
196 10-05-2021 18:15:00 18.6 C 71 % 13.24 C
197 10-05-2021 18:20:00 18.5 C 70 % 12.93 C
198 10-05-2021 18:25:00 18.5 C 71 % 13.15 C
199 10-05-2021 18:30:00 18.5 C 71 % 13.15 C
200 10-05-2021 18:35:00 18.4 C 71 % 13.05 C
Sensor: Nr:Datum:Temp:Feuchte:Taupunkt:
Aussen-T/F 201 10-05-2021 18:40:00 18.3 C 70 % 12.74 C
202 10-05-2021 18:45:00 18.3 C 69 % 12.52 C
203 10-05-2021 18:50:00 18.2 C 70 % 12.64 C
204 10-05-2021 18:55:00 18.2 C 69 % 12.42 C
205 10-05-2021 19:00:00 18.2 C 70 % 12.64 C
206 10-05-2021 19:05:00 18.2 C 71 % 12.86 C
207 10-05-2021 19:10:00 18.2 C 71 % 12.86 C
208 10-05-2021 19:15:00 18.1 C 72 % 12.98 C
209 10-05-2021 19:20:00 17.9 C 71 % 12.57 C
210 10-05-2021 19:25:00 17.8 C 73 % 12.9 C
211 10-05-2021 19:30:00 17.7 C 73 % 12.8 C
212 10-05-2021 19:35:00 17.5 C 75 % 13.02 C
213 10-05-2021 19:40:00 17.3 C 77 % 13.23 C
214 10-05-2021 19:45:00 17.1 C 79 % 13.43 C
215 10-05-2021 19:50:00 16.9 C 79 % 13.24 C
216 10-05-2021 19:55:00 16.8 C 80 % 13.33 C
217 10-05-2021 20:00:00 16.6 C 81 % 13.33 C
218 10-05-2021 20:05:00 16.5 C 82 % 13.42 C
219 10-05-2021 20:10:00 16.3 C 82 % 13.22 C
220 10-05-2021 20:15:00 16.2 C 83 % 13.31 C
221 10-05-2021 20:20:00 16.1 C 83 % 13.21 C
222 10-05-2021 20:25:00 16 C 84 % 13.3 C
223 10-05-2021 20:30:00 15.9 C 84 % 13.2 C
224 10-05-2021 20:35:00 15.8 C 84 % 13.1 C
225 10-05-2021 20:40:00 15.7 C 84 % 13.01 C
Sensor: Nr:Datum:Temp:Feuchte:Taupunkt:
Aussen-T/F 226 10-05-2021 20:45:00 15.7 C 85 % 13.19 C
227 10-05-2021 20:50:00 15.6 C 85 % 13.09 C
228 10-05-2021 20:55:00 15.5 C 85 % 12.99 C
229 10-05-2021 21:00:00 15.4 C 85 % 12.89 C
230 10-05-2021 21:05:00 15.4 C 86 % 13.07 C
231 10-05-2021 21:10:00 15.3 C 86 % 12.97 C
232 10-05-2021 21:15:00 15.3 C 86 % 12.97 C
233 10-05-2021 21:20:00 15.2 C 86 % 12.88 C
234 10-05-2021 21:25:00 15.2 C 87 % 13.05 C
235 10-05-2021 21:30:00 15.2 C 87 % 13.05 C
236 10-05-2021 21:35:00 15.2 C 87 % 13.05 C
237 10-05-2021 21:40:00 15.2 C 87 % 13.05 C
238 10-05-2021 21:45:00 15.1 C 88 % 13.13 C
239 10-05-2021 21:50:00 15.1 C 88 % 13.13 C
240 10-05-2021 21:55:00 15.1 C 88 % 13.13 C

Legende:
   Min
   Max


Maximal/Minimal-Werte vom 10.05.2021 - 10.05.2021

Sensor Min Max Avg
Temp
(Aussen-T/F)
15.1 °C
10-05-2021  21:45:00
21.2 °C
10-05-2021  10:30:00
18.17 °C
Feuchte
(Aussen-T/F)
55 %
10-05-2021  10:30:00
88 %
10-05-2021  21:45:00
70.03 %
Taupunkt
(Aussen-T/F)
11.49 C
10-05-2021  05:20:00
13.78 C
10-05-2021  12:15:00
12.46 C

Die Daten stammen von einer Davis Vantage Pro 2 Wetter-Station und werden unter Linux mit der Software wview2wettercgi und aufbereitet. Alle Angaben erfolgen ohne Gewähr für ihre Vollständigkeit oder Richtigkeit.
Kontakt: Rainer Krienke krienke@uni-koblenz.de . Meine Webseiten an der Uni Koblenz oder privat.
Version: $Revision: 0.78 $